Time;durP1;ratioP1;P1;durP2;ratioP2;P2;SDS_P1;SDS_P2;PMS_P1;PMS_P2;Temp;Humidity;BMP_temperature;BMP_pressure;BME280_temperature;BME280_humidity;BME280_pressure;Samples;Min_cycle;Max_cycle;Signal;HPM_P1;HPM_P2
2021/05/03 00:02:01;;;;;;;18.25;7.32;;;2.40;99.90;;;;;;5085096;28;20041;-65
2021/05/03 00:04:26;;;;;;;20.48;7.68;;;2.40;99.90;;;;;;5080030;28;20025;-65
2021/05/03 00:06:53;;;;;;;16.15;7.85;;;2.20;99.90;;;;;;5074442;28;20551;-65
2021/05/03 00:09:18;;;;;;;19.00;8.23;;;2.20;99.90;;;;;;5077691;28;20113;-65
2021/05/03 00:11:44;;;;;;;19.65;7.97;;;2.40;99.90;;;;;;5078302;28;21073;-65
2021/05/03 00:14:10;;;;;;;20.17;8.40;;;2.20;99.90;;;;;;5076216;28;20392;-65
2021/05/03 00:16:37;;;;;;;17.63;7.85;;;2.30;99.90;;;;;;5074141;28;20035;-65
2021/05/03 00:19:02;;;;;;;22.83;9.88;;;2.00;99.90;;;;;;5078341;28;20092;-65
2021/05/03 00:21:28;;;;;;;19.73;8.63;;;2.20;99.90;;;;;;5077427;28;20036;-65
2021/05/03 00:23:54;;;;;;;21.83;8.77;;;2.10;99.90;;;;;;5084115;28;20032;-65
2021/05/03 00:26:20;;;;;;;20.70;8.85;;;2.10;99.90;;;;;;5081460;28;20482;-65
2021/05/03 00:28:45;;;;;;;18.23;8.73;;;2.00;99.90;;;;;;5077885;28;20065;-65
2021/05/03 00:31:11;;;;;;;18.52;8.25;;;1.90;99.90;;;;;;5073253;28;20133;-65
2021/05/03 00:33:36;;;;;;;23.67;9.45;;;1.80;99.90;;;;;;5075529;28;20148;-65
2021/05/03 00:36:03;;;;;;;25.45;9.18;;;1.60;99.90;;;;;;5071798;28;20569;-65
2021/05/03 00:38:30;;;;;;;19.08;8.98;;;1.40;99.90;;;;;;5077273;28;20474;-65
2021/05/03 00:40:57;;;;;;;20.48;8.90;;;1.40;99.90;;;;;;5074109;28;20482;-65
2021/05/03 00:43:23;;;;;;;19.00;8.65;;;1.60;99.90;;;;;;5074504;28;20055;-65
2021/05/03 00:45:50;;;;;;;20.92;9.18;;;1.40;99.90;;;;;;5070549;28;20070;-65
2021/05/03 00:48:16;;;;;;;20.40;8.60;;;1.20;99.90;;;;;;5074473;28;20021;-65
2021/05/03 00:50:43;;;;;;;20.05;9.20;;;1.20;99.90;;;;;;5075751;28;20108;-65
2021/05/03 00:53:09;;;;;;;22.63;9.35;;;1.10;99.90;;;;;;5083569;28;20032;-65
2021/05/03 00:55:35;;;;;;;17.45;8.35;;;1.10;99.90;;;;;;5080036;28;20084;-65
2021/05/03 00:58:05;;;;;;;20.73;9.48;;;1.20;99.90;;;;;;5082249;28;20120;-65
2021/05/03 01:00:32;;;;;;;;;;;1.10;99.90;;;;;;5077111;28;20028;-65
2021/05/03 01:02:58;;;;;;;21.58;9.60;;;1.00;99.90;;;;;;5082610;28;19950;-65
2021/05/03 01:05:28;;;;;;;23.92;9.43;;;0.90;99.90;;;;;;5083760;28;20032;-65
2021/05/03 01:07:58;;;;;;;21.98;9.35;;;0.90;99.90;;;;;;5076576;28;20111;-65
2021/05/03 01:10:25;;;;;;;18.77;9.50;;;0.90;99.90;;;;;;5078500;28;20059;-65
2021/05/03 01:12:52;;;;;;;19.75;9.52;;;0.80;99.90;;;;;;5089416;28;20103;-65
2021/05/03 01:15:22;;;;;;;23.40;9.38;;;0.80;99.90;;;;;;5073147;28;20116;-65
2021/05/03 01:17:56;;;;;;;21.05;10.02;;;1.10;99.90;;;;;;5083920;28;20024;-66
2021/05/03 01:20:29;;;;;;;22.13;9.90;;;1.10;99.90;;;;;;5074676;28;20028;-65
2021/05/03 01:22:59;;;;;;;22.98;9.93;;;1.20;99.90;;;;;;5069482;28;20078;-65
2021/05/03 01:25:31;;;;;;;20.63;9.32;;;1.10;99.90;;;;;;5080257;28;20024;-65
2021/05/03 01:28:01;;;;;;;23.80;9.77;;;1.10;99.90;;;;;;5074836;28;20101;-65
2021/05/03 01:30:37;;;;;;;25.55;10.25;;;0.90;99.90;;;;;;5075273;28;20068;-65
2021/05/03 01:33:05;;;;;;;24.80;10.10;;;0.90;99.90;;;;;;5072644;28;20519;-65
2021/05/03 01:35:31;;;;;;;24.52;10.68;;;0.80;99.90;;;;;;5070583;28;20043;-65
2021/05/03 01:37:59;;;;;;;23.13;9.73;;;0.80;99.90;;;;;;5078728;28;20036;-65
2021/05/03 01:40:27;;;;;;;24.20;11.23;;;0.80;99.90;;;;;;5078148;28;20054;-65
2021/05/03 01:42:53;;;;;;;23.67;10.23;;;0.90;99.90;;;;;;5075343;28;20025;-65
2021/05/03 01:45:22;;;;;;;26.88;10.90;;;1.00;99.90;;;;;;5082976;28;20177;-65
2021/05/03 01:47:50;;;;;;;25.27;11.10;;;1.00;99.90;;;;;;5065082;28;20124;-65
2021/05/03 01:50:18;;;;;;;26.30;11.23;;;1.10;99.90;;;;;;5071885;28;20093;-65
2021/05/03 01:52:45;;;;;;;25.17;11.75;;;0.90;99.90;;;;;;5076610;28;20070;-65
2021/05/03 01:55:12;;;;;;;26.15;10.85;;;0.80;99.90;;;;;;5075643;28;20105;-65
2021/05/03 01:57:38;;;;;;;24.20;10.65;;;0.70;99.90;;;;;;5076862;28;20044;-66
2021/05/03 02:00:06;;;;;;;24.67;10.50;;;0.60;99.90;;;;;;5066152;28;20070;-65
2021/05/03 02:02:32;;;;;;;24.63;10.50;;;0.70;99.90;;;;;;5079641;28;20055;-65
2021/05/03 02:04:57;;;;;;;24.17;11.80;;;0.70;99.90;;;;;;5076378;28;20062;-65
2021/05/03 02:07:23;;;;;;;23.23;10.38;;;0.60;99.90;;;;;;5076921;28;20027;-65
2021/05/03 02:09:49;;;;;;;24.83;11.25;;;0.50;99.90;;;;;;5074420;28;20044;-65
2021/05/03 02:12:14;;;;;;;27.70;11.15;;;0.40;99.90;;;;;;5075092;28;20115;-64
2021/05/03 02:14:41;;;;;;;24.92;11.00;;;0.50;99.90;;;;;;5077326;28;20059;-64
2021/05/03 02:17:07;;;;;;;28.90;12.00;;;0.60;99.90;;;;;;5070539;28;20107;-64
2021/05/03 02:19:34;;;;;;;30.80;12.73;;;0.60;99.90;;;;;;5075221;28;20123;-64
2021/05/03 02:22:00;;;;;;;30.48;12.02;;;0.60;99.90;;;;;;5077180;28;20108;-64
2021/05/03 02:24:26;;;;;;;25.77;12.10;;;0.60;99.90;;;;;;5080705;28;20764;-64
2021/05/03 02:26:51;;;;;;;31.48;13.98;;;0.50;99.90;;;;;;5082917;28;20038;-64
2021/05/03 02:29:17;;;;;;;28.35;12.43;;;0.50;99.90;;;;;;5066046;28;20032;-66
2021/05/03 02:31:43;;;;;;;30.50;13.18;;;0.50;99.90;;;;;;5070471;28;20619;-64
2021/05/03 02:34:09;;;;;;;33.33;13.00;;;0.50;99.90;;;;;;5070954;28;20171;-64
2021/05/03 02:36:34;;;;;;;32.08;13.13;;;0.40;99.90;;;;;;5071392;28;20071;-64
2021/05/03 02:39:00;;;;;;;28.92;13.30;;;0.40;99.90;;;;;;5068602;28;20048;-66
2021/05/03 02:41:26;;;;;;;35.45;14.15;;;0.80;99.90;;;;;;5079352;28;20028;-66
2021/05/03 02:43:51;;;;;;;30.85;13.90;;;0.90;99.90;;;;;;5071443;28;20033;-64
2021/05/03 02:46:17;;;;;;;32.05;14.30;;;0.90;99.90;;;;;;5074814;28;20032;-64
2021/05/03 02:48:43;;;;;;;35.80;15.15;;;0.70;99.90;;;;;;5071356;28;20028;-63
2021/05/03 02:51:09;;;;;;;38.42;16.30;;;0.90;99.90;;;;;;5070209;28;20067;-64
2021/05/03 02:53:34;;;;;;;38.47;16.05;;;0.80;99.90;;;;;;5079098;28;20476;-64
2021/05/03 02:56:00;;;;;;;35.72;16.20;;;1.00;99.90;;;;;;5076811;28;20055;-66
2021/05/03 02:58:26;;;;;;;38.10;16.50;;;1.10;99.90;;;;;;5078661;28;20063;-65
2021/05/03 03:00:52;;;;;;;36.97;16.42;;;1.10;99.90;;;;;;5079272;28;20063;-65
2021/05/03 03:03:17;;;;;;;36.78;17.27;;;1.00;99.90;;;;;;5078245;28;20063;-65
2021/05/03 03:05:43;;;;;;;40.42;17.73;;;1.10;99.90;;;;;;5072610;28;20032;-65
2021/05/03 03:08:09;;;;;;;42.30;17.35;;;1.20;99.90;;;;;;5077115;28;20154;-65
2021/05/03 03:10:35;;;;;;;39.83;17.08;;;1.20;99.90;;;;;;5076850;28;20040;-65
2021/05/03 03:13:03;;;;;;;43.65;18.75;;;1.00;99.90;;;;;;5078051;28;20296;-65
2021/05/03 03:15:32;;;;;;;45.30;18.02;;;1.10;99.90;;;;;;5063064;28;20107;-65
2021/05/03 03:17:58;;;;;;;41.22;16.45;;;1.00;99.90;;;;;;5069637;28;20112;-65
2021/05/03 03:20:24;;;;;;;41.58;17.08;;;1.10;99.90;;;;;;5073729;28;20140;-65
2021/05/03 03:22:49;;;;;;;41.15;17.88;;;1.00;99.90;;;;;;5078745;28;20092;-65
2021/05/03 03:25:18;;;;;;;38.72;16.25;;;1.00;99.90;;;;;;5076766;28;20491;-65
2021/05/03 03:27:45;;;;;;;40.70;16.92;;;0.90;99.90;;;;;;5074590;28;20515;-65
2021/05/03 03:30:13;;;;;;;41.42;16.63;;;1.10;99.90;;;;;;5071026;28;20083;-64
2021/05/03 03:32:43;;;;;;;45.15;16.35;;;1.10;99.90;;;;;;5068749;28;20025;-63
2021/05/03 03:35:16;;;;;;;37.22;15.73;;;1.20;99.90;;;;;;5081368;28;20047;-64
2021/05/03 03:37:42;;;;;;;39.28;15.68;;;1.20;99.90;;;;;;5076113;28;20081;-64
2021/05/03 03:40:09;;;;;;;38.10;15.95;;;1.30;99.90;;;;;;5076158;28;20029;-63
2021/05/03 03:42:35;;;;;;;45.20;17.08;;;1.30;99.90;;;;;;5078020;28;20418;-64
2021/05/03 03:45:01;;;;;;;41.92;17.38;;;1.40;99.90;;;;;;5071301;28;20024;-65
2021/05/03 03:47:27;;;;;;;42.13;17.15;;;1.50;99.90;;;;;;5074184;28;20131;-66
2021/05/03 03:49:52;;;;;;;40.90;17.05;;;1.50;99.90;;;;;;5068537;28;20531;-66
2021/05/03 03:52:19;;;;;;;36.90;16.88;;;1.70;99.90;;;;;;5076542;28;20074;-66
2021/05/03 03:54:45;;;;;;;44.42;18.52;;;1.70;99.90;;;;;;5077214;28;20083;-63
2021/05/03 03:57:10;;;;;;;41.65;16.90;;;1.70;99.90;;;;;;5074984;28;20051;-66
2021/05/03 03:59:42;;;;;;;48.30;18.80;;;1.70;99.90;;;;;;5073092;28;20033;-66
2021/05/03 04:02:08;;;;;;;40.10;18.85;;;1.70;99.90;;;;;;5082146;28;20042;-66
2021/05/03 04:04:35;;;;;;;42.00;18.15;;;2.00;99.90;;;;;;5076689;28;20036;-66
2021/05/03 04:10:08;;;;;;;44.25;18.52;;;1.70;99.90;;;;;;5054944;28;20056;-65
2021/05/03 04:12:45;;;;;;;39.00;17.70;;;1.60;99.90;;;;;;5077632;28;20387;-67
2021/05/03 04:23:48;;;;;;;42.00;18.17;;;2.00;99.90;;;;;;5075538;28;20055;-67
2021/05/03 04:26:15;;;;;;;43.63;17.67;;;2.00;99.90;;;;;;5080088;28;20297;-67
2021/05/03 04:28:41;;;;;;;49.35;20.23;;;2.20;99.90;;;;;;5074182;28;20628;-66
2021/05/03 04:31:06;;;;;;;40.45;19.08;;;2.20;99.90;;;;;;5080809;28;20040;-66
2021/05/03 04:33:32;;;;;;;47.05;19.77;;;2.30;99.90;;;;;;5078344;28;20066;-66
2021/05/03 04:35:59;;;;;;;47.95;18.30;;;2.30;99.90;;;;;;5070279;28;20490;-66
2021/05/03 04:38:25;;;;;;;44.33;19.55;;;2.40;99.90;;;;;;5070109;28;20453;-66
2021/05/03 04:40:51;;;;;;;42.53;20.00;;;2.40;99.90;;;;;;5072830;28;20036;-66
2021/05/03 04:43:18;;;;;;;43.97;18.90;;;2.40;99.90;;;;;;5071090;28;20468;-66
2021/05/03 04:45:44;;;;;;;42.97;18.35;;;2.40;99.90;;;;;;5065615;28;20073;-66
2021/05/03 04:48:09;;;;;;;38.25;16.70;;;2.60;99.90;;;;;;5075416;28;20036;-67
2021/05/03 04:50:35;;;;;;;39.40;16.88;;;2.60;99.90;;;;;;5067045;28;20036;-66
2021/05/03 04:53:01;;;;;;;35.40;16.42;;;2.70;99.90;;;;;;5082612;28;20032;-65
2021/05/03 04:55:26;;;;;;;34.25;15.13;;;2.70;99.90;;;;;;5076494;28;20050;-68
2021/05/03 04:57:52;;;;;;;33.03;14.27;;;2.80;99.90;;;;;;5082486;28;20685;-67
2021/05/03 05:00:18;;;;;;;35.58;16.02;;;2.80;99.90;;;;;;5073747;28;20039;-65
2021/05/03 05:02:44;;;;;;;31.55;14.00;;;2.80;99.90;;;;;;5076374;28;20063;-68
2021/05/03 05:05:11;;;;;;;34.15;14.38;;;2.90;99.90;;;;;;5070844;28;20596;-69
2021/05/03 05:07:38;;;;;;;32.50;14.52;;;3.00;99.90;;;;;;5075747;28;20067;-67
2021/05/03 05:10:05;;;;;;;19.15;9.13;;;3.10;99.90;;;;;;5080509;28;20382;-65
2021/05/03 05:12:31;;;;;;;30.30;13.50;;;3.20;99.90;;;;;;5090549;28;20028;-69
2021/05/03 05:14:56;;;;;;;26.95;13.35;;;3.30;99.90;;;;;;5075442;28;20634;-66
2021/05/03 05:17:23;;;;;;;29.20;12.82;;;3.30;99.90;;;;;;5085105;28;20040;-66
2021/05/03 05:19:49;;;;;;;25.05;13.02;;;3.40;99.90;;;;;;5074577;28;20451;-66
2021/05/03 05:22:16;;;;;;;23.02;11.00;;;3.50;99.90;;;;;;5074031;28;20126;-69
2021/05/03 05:24:42;;;;;;;24.23;10.85;;;3.50;99.90;;;;;;5081691;28;20116;-68
2021/05/03 05:27:08;;;;;;;28.02;13.05;;;3.60;99.90;;;;;;5086849;28;20115;-67
2021/05/03 05:29:34;;;;;;;21.58;9.80;;;3.60;99.90;;;;;;5081534;28;20025;-67
2021/05/03 05:32:00;;;;;;;26.70;11.70;;;3.60;99.90;;;;;;5074988;28;20055;-65
2021/05/03 05:34:25;;;;;;;24.48;12.98;;;3.80;99.90;;;;;;5081952;28;20338;-69
2021/05/03 05:36:51;;;;;;;25.50;10.98;;;3.80;99.90;;;;;;5081896;28;20082;-67
2021/05/03 05:39:17;;;;;;;28.90;11.27;;;3.80;99.90;;;;;;5067996;28;20345;-70
2021/05/03 05:41:43;;;;;;;29.25;13.38;;;3.80;99.90;;;;;;5069927;28;20013;-67
2021/05/03 05:44:10;;;;;;;27.77;11.70;;;3.80;99.90;;;;;;5073014;28;20035;-65
2021/05/03 05:46:38;;;;;;;24.13;11.45;;;3.90;99.90;;;;;;5083424;28;20479;-66
2021/05/03 05:49:04;;;;;;;24.92;9.15;;;4.00;99.90;;;;;;5080598;28;20548;-68
2021/05/03 05:51:30;;;;;;;22.05;10.40;;;4.20;99.90;;;;;;5071732;28;20364;-66
2021/05/03 05:53:56;;;;;;;25.20;10.30;;;4.30;99.90;;;;;;5072184;28;20024;-66
2021/05/03 05:56:21;;;;;;;21.02;9.80;;;4.40;99.90;;;;;;5074875;28;20109;-66
2021/05/03 05:58:47;;;;;;;16.40;7.85;;;4.50;99.90;;;;;;5078979;28;20028;-66
2021/05/03 06:01:14;;;;;;;23.83;10.52;;;4.60;99.90;;;;;;5078045;28;20028;-65
2021/05/03 06:03:40;;;;;;;16.95;8.55;;;4.80;99.90;;;;;;5079113;28;20024;-65
2021/05/03 06:06:06;;;;;;;24.10;10.30;;;4.70;99.90;;;;;;5073797;28;20027;-65
2021/05/03 06:08:33;;;;;;;25.60;9.75;;;4.90;99.90;;;;;;5081701;28;20020;-66
2021/05/03 06:10:59;;;;;;;23.23;9.50;;;5.00;99.90;;;;;;5079501;28;20041;-65
2021/05/03 06:13:26;;;;;;;17.65;7.53;;;5.10;99.90;;;;;;5077735;28;20028;-66
2021/05/03 06:15:51;;;;;;;19.90;8.30;;;5.20;99.90;;;;;;5068438;28;20059;-65
2021/05/03 06:18:17;;;;;;;20.05;8.88;;;5.40;99.90;;;;;;5073952;28;20429;-65
2021/05/03 06:20:43;;;;;;;17.98;7.85;;;5.60;99.90;;;;;;5072808;28;20160;-66
2021/05/03 06:23:13;;;;;;;14.23;6.95;;;5.80;99.90;;;;;;5082674;28;20440;-66
2021/05/03 06:25:40;;;;;;;17.60;8.50;;;5.90;99.90;;;;;;5066421;28;20028;-66
2021/05/03 06:28:06;;;;;;;15.23;7.75;;;6.00;99.90;;;;;;5073546;28;20031;-66
2021/05/03 06:30:32;;;;;;;16.42;7.72;;;6.20;99.90;;;;;;5078811;28;20148;-66
2021/05/03 06:32:58;;;;;;;16.77;7.45;;;6.30;99.90;;;;;;5068572;28;20119;-66
2021/05/03 06:35:24;;;;;;;13.63;5.90;;;6.50;99.90;;;;;;5081086;28;20032;-66
2021/05/03 06:37:50;;;;;;;14.55;6.28;;;6.50;99.90;;;;;;5076924;28;20078;-66
2021/05/03 06:40:17;;;;;;;13.90;4.85;;;6.70;99.90;;;;;;5080760;28;20391;-67
2021/05/03 06:42:43;;;;;;;14.05;6.32;;;6.90;99.90;;;;;;5079827;28;20028;-66
2021/05/03 06:45:10;;;;;;;12.13;5.57;;;7.00;99.90;;;;;;5080224;28;20031;-66
2021/05/03 06:47:37;;;;;;;13.15;4.90;;;7.10;99.90;;;;;;5073469;28;20016;-66
2021/05/03 06:50:08;;;;;;;13.32;6.55;;;7.30;99.90;;;;;;5073152;28;20036;-66
2021/05/03 06:52:34;;;;;;;12.45;5.38;;;7.50;99.90;;;;;;5068861;28;20021;-66
2021/05/03 06:54:59;;;;;;;12.80;5.30;;;7.70;99.90;;;;;;5072331;28;20040;-64
2021/05/03 06:57:25;;;;;;;14.20;6.15;;;7.80;99.90;;;;;;5082262;28;20032;-66
2021/05/03 06:59:51;;;;;;;12.00;5.85;;;7.80;99.90;;;;;;5076449;28;20511;-64
2021/05/03 07:02:17;;;;;;;9.60;4.55;;;8.00;99.90;;;;;;5074966;28;20028;-64
2021/05/03 07:04:42;;;;;;;11.32;5.20;;;8.00;99.90;;;;;;5081080;28;20040;-66
2021/05/03 07:07:08;;;;;;;13.27;5.03;;;8.00;99.90;;;;;;5084149;28;20339;-66
2021/05/03 07:09:34;;;;;;;11.57;5.18;;;8.00;99.90;;;;;;5076140;28;20175;-66
2021/05/03 07:12:08;;;;;;;11.52;5.80;;;8.00;99.90;;;;;;5076740;28;20035;-64
2021/05/03 07:14:37;;;;;;;11.90;5.13;;;8.10;99.90;;;;;;5070217;28;20024;-66
2021/05/03 07:17:05;;;;;;;12.30;4.70;;;8.20;99.90;;;;;;5081714;28;20053;-66
2021/05/03 07:19:35;;;;;;;13.27;5.32;;;8.50;99.90;;;;;;5071375;28;20488;-66
2021/05/03 07:22:04;;;;;;;13.57;5.95;;;8.60;99.90;;;;;;5066388;28;20541;-66
2021/05/03 07:24:30;;;;;;;13.68;5.00;;;8.50;99.90;;;;;;5066614;28;20059;-66
2021/05/03 07:26:56;;;;;;;12.55;5.18;;;8.60;99.90;;;;;;5074036;28;20032;-66
2021/05/03 07:29:21;;;;;;;15.77;5.47;;;8.50;99.90;;;;;;5072288;28;20598;-66
2021/05/03 07:31:47;;;;;;;15.40;6.70;;;8.60;99.90;;;;;;5084686;28;20028;-66
2021/05/03 07:34:14;;;;;;;12.50;5.85;;;8.70;99.90;;;;;;5072649;28;20033;-66
2021/05/03 07:36:41;;;;;;;14.63;7.95;;;8.60;99.90;;;;;;5081105;28;20031;-66
2021/05/03 07:39:07;;;;;;;11.38;5.50;;;8.60;99.90;;;;;;5082118;28;20221;-63
2021/05/03 07:41:35;;;;;;;11.30;5.60;;;8.70;99.90;;;;;;5075959;28;20021;-66
2021/05/03 07:44:01;;;;;;;9.50;4.00;;;8.90;99.90;;;;;;5077860;28;20016;-66
2021/05/03 07:46:28;;;;;;;12.30;5.00;;;8.90;99.90;;;;;;5080276;28;20063;-66
2021/05/03 07:48:55;;;;;;;11.15;5.60;;;8.90;99.90;;;;;;5076160;28;20073;-66
2021/05/03 07:51:21;;;;;;;12.20;6.07;;;8.70;99.90;;;;;;5081529;28;20120;-66
2021/05/03 07:53:46;;;;;;;11.98;5.43;;;8.80;99.90;;;;;;5078413;28;20044;-66
2021/05/03 07:56:16;;;;;;;12.13;5.25;;;8.90;99.90;;;;;;5072211;28;20048;-66
2021/05/03 07:58:44;;;;;;;10.02;4.75;;;8.80;99.90;;;;;;5085041;28;20049;-66
2021/05/03 08:01:10;;;;;;;8.98;4.05;;;9.00;99.90;;;;;;5083254;28;20694;-66
2021/05/03 08:03:38;;;;;;;8.73;3.72;;;9.10;99.90;;;;;;5081984;28;20499;-66
2021/05/03 08:06:09;;;;;;;10.93;4.72;;;9.40;99.90;;;;;;5076913;28;20452;-66
2021/05/03 08:08:34;;;;;;;9.45;3.85;;;9.40;99.90;;;;;;5075671;28;20020;-66
2021/05/03 08:11:01;;;;;;;12.02;4.03;;;9.70;99.90;;;;;;5079899;28;20035;-66
2021/05/03 08:13:28;;;;;;;10.32;3.83;;;10.10;99.90;;;;;;5083068;28;20062;-66
2021/05/03 08:15:57;;;;;;;8.15;3.20;;;10.50;98.70;;;;;;5076594;28;20031;-66
2021/05/03 08:18:23;;;;;;;10.75;3.50;;;11.00;97.60;;;;;;5069822;28;20075;-64
2021/05/03 08:20:48;;;;;;;8.75;3.53;;;11.30;97.00;;;;;;5075752;28;20132;-66
2021/05/03 08:23:19;;;;;;;9.52;3.45;;;11.70;97.10;;;;;;5073370;28;20814;-66
2021/05/03 08:25:50;;;;;;;7.07;3.30;;;11.90;94.10;;;;;;5073631;28;20024;-66
2021/05/03 08:28:17;;;;;;;7.97;3.20;;;11.70;93.60;;;;;;5079521;28;20146;-67
2021/05/03 08:30:44;;;;;;;8.45;3.33;;;12.20;93.30;;;;;;5083053;28;20032;-66
2021/05/03 08:33:10;;;;;;;6.75;2.72;;;12.90;91.40;;;;;;5080863;28;20126;-67
2021/05/03 08:35:36;;;;;;;7.70;2.45;;;12.50;87.50;;;;;;5076449;28;20060;-67
2021/05/03 08:38:03;;;;;;;7.60;3.00;;;12.70;86.20;;;;;;5082186;28;20528;-66
2021/05/03 08:40:30;;;;;;;7.38;2.40;;;13.10;85.80;;;;;;5083804;28;20098;-67
2021/05/03 08:42:56;;;;;;;6.82;2.13;;;13.30;76.50;;;;;;5090265;28;20436;-66
2021/05/03 08:45:23;;;;;;;5.95;2.05;;;13.70;72.40;;;;;;5077500;28;20110;-67
2021/05/03 08:53:24;;;;;;;6.65;1.88;;;13.10;72.00;;;;;;5080282;28;20482;-67
2021/05/03 08:55:49;;;;;;;7.55;2.33;;;13.60;71.20;;;;;;5075612;28;20488;-67
2021/05/03 08:58:15;;;;;;;6.00;2.30;;;14.10;72.00;;;;;;5084163;28;20102;-65
2021/05/03 09:00:41;;;;;;;7.35;2.25;;;14.70;68.60;;;;;;5089681;28;20064;-65
2021/05/03 09:03:10;;;;;;;8.32;3.70;;;14.00;67.60;;;;;;5082668;28;20043;-65
2021/05/03 09:05:36;;;;;;;9.95;2.72;;;13.50;68.90;;;;;;5077613;28;20085;-65
2021/05/03 09:08:03;;;;;;;7.60;2.90;;;14.10;67.40;;;;;;5075268;28;20024;-65
2021/05/03 09:10:30;;;;;;;7.68;2.72;;;14.00;69.80;;;;;;5072029;28;20483;-65
2021/05/03 09:13:10;;;;;;;7.18;3.00;;;14.30;66.20;;;;;;5075280;28;20020;-66
2021/05/03 09:15:36;;;;;;;11.32;3.15;;;14.30;68.10;;;;;;5071947;28;20418;-65
2021/05/03 09:18:03;;;;;;;8.73;3.03;;;14.30;66.60;;;;;;5081476;28;20031;-65
2021/05/03 09:20:30;;;;;;;9.40;2.60;;;14.20;65.60;;;;;;5077606;28;20032;-65
2021/05/03 09:26:04;;;;;;;5.45;2.15;;;14.10;64.30;;;;;;5016150;28;20029;-65
2021/05/03 09:28:30;;;;;;;5.35;1.90;;;14.60;62.80;;;;;;5072238;28;20036;-65
2021/05/03 09:30:56;;;;;;;6.35;2.10;;;13.90;61.30;;;;;;5078997;28;20028;-65
2021/05/03 09:33:26;;;;;;;4.63;1.80;;;13.90;61.90;;;;;;5080710;28;20042;-65
2021/05/03 09:36:03;;;;;;;6.45;2.22;;;14.10;61.80;;;;;;5074917;28;20392;-65
2021/05/03 09:38:45;;;;;;;5.70;2.10;;;14.20;63.00;;;;;;5073237;28;20545;-65
2021/05/03 09:41:23;;;;;;;5.70;2.00;;;14.50;60.10;;;;;;5072592;28;20039;-65
2021/05/03 09:43:51;;;;;;;7.50;2.10;;;14.60;60.10;;;;;;5084513;28;20048;-65
2021/05/03 09:46:38;;;;;;;4.47;1.75;;;14.70;62.40;;;;;;5083876;28;20073;-66
2021/05/03 09:49:11;;;;;;;5.72;2.33;;;15.40;60.50;;;;;;5084281;28;20027;-66
2021/05/03 09:51:40;;;;;;;5.72;2.22;;;15.70;61.10;;;;;;5082239;28;20602;-65
2021/05/03 09:54:09;;;;;;;5.45;1.98;;;15.40;59.00;;;;;;5081623;28;20024;-65
2021/05/03 09:56:49;;;;;;;7.30;2.00;;;15.60;57.00;;;;;;5069902;28;20051;-66
2021/05/03 09:59:24;;;;;;;7.18;2.80;;;15.80;57.50;;;;;;5081296;28;20028;-66
2021/05/03 10:02:22;;;;;;;6.75;3.00;;;15.70;57.90;;;;;;5080156;28;20028;-66
2021/05/03 10:05:14;;;;;;;7.70;2.97;;;15.70;58.80;;;;;;5087750;28;20053;-66
2021/05/03 10:07:42;;;;;;;7.47;2.50;;;14.90;56.60;;;;;;5078025;28;20449;-66
2021/05/03 10:10:26;;;;;;;5.13;2.15;;;14.70;57.40;;;;;;5081236;28;20036;-66
2021/05/03 10:12:52;;;;;;;8.25;3.13;;;14.80;57.40;;;;;;5073611;28;20020;-66
2021/05/03 10:15:19;;;;;;;8.68;3.88;;;15.00;58.70;;;;;;5085538;28;20039;-66
2021/05/03 10:17:46;;;;;;;9.25;3.67;;;14.50;57.60;;;;;;5072839;28;20081;-66
2021/05/03 10:20:16;;;;;;;9.70;3.90;;;14.10;59.70;;;;;;5085635;28;20057;-66
2021/05/03 10:22:43;;;;;;;9.88;4.53;;;14.10;60.00;;;;;;5085327;28;20020;-66
2021/05/03 10:25:16;;;;;;;10.38;4.50;;;14.60;60.00;;;;;;5077146;28;20020;-66
2021/05/03 10:27:46;;;;;;;9.38;4.05;;;14.50;61.20;;;;;;5080237;28;20028;-66
2021/05/03 10:30:23;;;;;;;11.18;3.03;;;15.00;59.90;;;;;;5081012;28;20492;-66
2021/05/03 10:33:04;;;;;;;7.15;3.33;;;15.10;59.40;;;;;;5080870;28;20040;-66
2021/05/03 10:35:37;;;;;;;6.28;2.70;;;15.50;60.80;;;;;;5082949;28;20496;-66
2021/05/03 10:38:03;;;;;;;7.90;3.45;;;16.00;58.70;;;;;;5082644;28;20115;-66
2021/05/03 10:40:35;;;;;;;11.23;3.40;;;16.60;56.40;;;;;;5085201;28;20032;-66
2021/05/03 10:43:08;;;;;;;7.32;3.53;;;16.90;57.90;;;;;;5083176;28;20582;-66
2021/05/03 10:45:53;;;;;;;9.32;4.43;;;16.30;58.20;;;;;;5080588;28;20032;-66
2021/05/03 10:48:28;;;;;;;8.82;4.30;;;15.90;59.70;;;;;;5081241;28;20024;-66
2021/05/03 10:50:54;;;;;;;13.20;4.20;;;16.20;60.90;;;;;;5081955;28;20117;-66
2021/05/03 10:53:21;;;;;;;11.55;3.83;;;16.80;59.00;;;;;;5078736;28;20020;-66
2021/05/03 10:55:56;;;;;;;9.20;4.00;;;16.70;57.90;;;;;;5079222;28;20047;-66
2021/05/03 10:58:21;;;;;;;11.52;4.47;;;17.20;59.80;;;;;;5078332;28;20154;-66
2021/05/03 11:00:59;;;;;;;11.77;5.22;;;17.20;58.70;;;;;;5084130;28;20095;-66
2021/05/03 11:03:56;;;;;;;9.25;4.20;;;16.10;59.60;;;;;;5082878;28;20043;-66
2021/05/03 11:06:43;;;;;;;8.80;3.90;;;16.00;59.00;;;;;;5082631;28;20039;-66
2021/05/03 11:09:28;;;;;;;12.43;5.13;;;15.50;59.60;;;;;;5078038;28;20380;-66
2021/05/03 11:12:22;;;;;;;11.88;4.93;;;15.60;60.60;;;;;;5085101;28;20036;-66
2021/05/03 11:15:24;;;;;;;10.00;5.13;;;15.10;60.30;;;;;;5081558;28;20020;-66
2021/05/03 11:18:18;;;;;;;9.57;4.65;;;16.10;59.40;;;;;;5091031;28;20515;-66
2021/05/03 11:21:19;;;;;;;9.73;4.90;;;16.20;60.00;;;;;;5072606;28;20140;-66
2021/05/03 11:23:46;;;;;;;8.68;4.22;;;16.70;61.80;;;;;;5000575;28;20125;-66
2021/05/03 11:26:24;;;;;;;9.23;4.90;;;16.90;60.20;;;;;;5067918;28;20094;-66
2021/05/03 11:28:52;;;;;;;13.20;4.70;;;16.80;58.60;;;;;;5080506;28;20023;-66
2021/05/03 11:31:22;;;;;;;12.45;5.78;;;18.30;59.10;;;;;;5077180;28;20055;-66
2021/05/03 11:34:01;;;;;;;;;;;16.40;57.10;;;;;;5079686;28;20052;-66
2021/05/03 11:36:32;;;;;;;9.73;4.00;;;16.20;59.80;;;;;;5085685;28;19999;-66
2021/05/03 11:42:00;;;;;;;11.98;4.88;;;16.70;59.30;;;;;;5081501;28;20021;-66
2021/05/03 11:44:46;;;;;;;9.95;4.32;;;16.70;57.80;;;;;;5071940;28;20023;-66
2021/05/03 11:47:12;;;;;;;9.27;4.32;;;15.80;58.80;;;;;;5085088;28;20047;-66
2021/05/03 11:49:44;;;;;;;9.77;4.57;;;16.50;59.10;;;;;;5076064;28;20464;-66
2021/05/03 11:52:11;;;;;;;12.02;5.32;;;17.10;58.00;;;;;;5085521;28;20054;-66
2021/05/03 11:54:42;;;;;;;11.98;4.95;;;16.80;58.00;;;;;;5071099;28;20104;-66
2021/05/03 11:57:18;;;;;;;10.63;5.60;;;16.30;57.90;;;;;;5075774;28;20057;-66
2021/05/03 11:59:44;;;;;;;11.90;4.70;;;16.30;59.50;;;;;;5085950;28;20476;-66
2021/05/03 12:02:12;;;;;;;10.15;4.63;;;16.00;58.00;;;;;;5092611;28;20030;-65
2021/05/03 12:04:43;;;;;;;10.13;5.00;;;15.00;60.00;;;;;;5084101;28;20032;-66
2021/05/03 12:07:25;;;;;;;10.30;4.78;;;15.20;60.40;;;;;;5080693;28;20427;-66
2021/05/03 12:10:02;;;;;;;11.82;4.82;;;15.80;60.80;;;;;;5078052;28;20024;-66
2021/05/03 12:12:48;;;;;;;10.35;4.70;;;16.90;58.30;;;;;;5073420;28;20029;-66
2021/05/03 12:15:19;;;;;;;9.18;4.75;;;17.30;56.90;;;;;;5084435;28;20036;-66
2021/05/03 12:17:45;;;;;;;12.05;4.70;;;17.20;56.50;;;;;;5080837;28;20028;-66
2021/05/03 12:20:14;;;;;;;9.88;4.18;;;16.80;56.10;;;;;;5081566;28;20387;-66
2021/05/03 12:23:02;;;;;;;8.50;4.32;;;18.10;55.20;;;;;;5089047;28;20020;-66
2021/05/03 12:25:42;;;;;;;10.90;5.50;;;17.30;53.20;;;;;;5075390;28;20029;-66
2021/05/03 12:28:11;;;;;;;;;;;16.90;55.80;;;;;;5093695;28;20020;-66
2021/05/03 12:30:38;;;;;;;10.40;3.00;;;18.30;54.60;;;;;;5085680;28;19916;-66
2021/05/03 12:33:18;;;;;;;10.10;5.32;;;19.10;53.30;;;;;;5074133;28;20464;-66
2021/05/03 12:35:45;;;;;;;10.63;5.15;;;18.70;51.80;;;;;;5077174;28;20043;-66
2021/05/03 12:38:23;;;;;;;9.90;4.28;;;17.80;54.10;;;;;;5082700;28;20671;-66
2021/05/03 12:40:49;;;;;;;11.07;5.13;;;16.50;54.70;;;;;;5072022;28;20044;-66
2021/05/03 12:43:14;;;;;;;10.52;5.13;;;16.00;55.50;;;;;;5087704;28;20373;-66
2021/05/03 12:48:30;;;;;;;11.00;5.28;;;15.80;57.40;;;;;;5084111;28;20765;-66
2021/05/03 12:56:44;;;;;;;12.55;5.35;;;15.30;58.60;;;;;;5074393;28;20127;-66
2021/05/03 13:01:45;;;;;;;9.35;4.97;;;15.40;58.90;;;;;;5073643;28;20460;-66
2021/05/03 13:04:53;;;;;;;10.65;4.63;;;15.90;57.10;;;;;;5086208;28;20103;-66
2021/05/03 13:29:15;;;;;;;13.20;7.35;;;15.50;57.60;;;;;;5082151;28;20093;-66
2021/05/03 13:31:43;;;;;;;13.65;8.30;;;14.80;58.60;;;;;;5078441;28;20036;-66
2021/05/03 13:34:17;;;;;;;13.98;5.97;;;14.70;59.30;;;;;;5078322;28;20048;-66
2021/05/03 13:36:46;;;;;;;11.27;5.47;;;15.70;60.10;;;;;;5080354;28;20028;-66
2021/05/03 13:39:12;;;;;;;9.00;4.90;;;17.00;57.50;;;;;;5082935;28;20128;-66
2021/05/03 13:41:41;;;;;;;8.93;4.70;;;16.70;55.10;;;;;;5075889;28;20023;-66
2021/05/03 13:44:09;;;;;;;10.35;5.57;;;16.90;55.90;;;;;;5083500;28;20027;-66
2021/05/03 13:46:35;;;;;;;11.40;5.50;;;16.20;57.00;;;;;;5073800;28;20032;-66
2021/05/03 13:49:03;;;;;;;11.65;5.88;;;16.20;56.60;;;;;;5074976;28;20028;-67